createdAt,value
2023-02-27T17:28:18.208Z,1.28
2023-02-27T17:30:46.377Z,1.30
2023-02-27T17:33:14.126Z,1.28
2023-02-27T17:35:41.933Z,1.20
2023-02-27T17:38:09.772Z,1.20
2023-02-27T17:40:39.393Z,1.18
2023-02-27T17:43:07.154Z,1.18
2023-02-27T17:45:34.994Z,1.12
2023-02-27T17:48:02.757Z,1.10
2023-02-27T17:50:32.126Z,1.10
2023-02-27T17:52:59.882Z,1.10
2023-02-27T17:55:28.066Z,1.06
2023-02-27T17:57:56.126Z,1.00
2023-02-27T18:00:24.948Z,1.00
2023-02-27T18:02:53.051Z,0.90
2023-02-27T18:05:20.911Z,0.90
2023-02-27T18:07:48.846Z,0.90
2023-02-27T18:10:16.851Z,0.84
2023-02-27T18:12:45.236Z,0.80
2023-02-27T18:15:14.283Z,0.80
2023-02-27T18:17:43.425Z,0.80
2023-02-27T18:20:12.516Z,0.80
2023-02-27T18:22:40.851Z,0.80
2023-02-27T18:25:09.212Z,0.80
2023-02-27T18:27:37.292Z,0.80
2023-02-27T18:30:06.180Z,0.80
2023-02-27T18:32:34.002Z,0.78
2023-02-27T18:35:02.122Z,0.70
2023-02-27T18:37:30.061Z,0.70
2023-02-27T18:39:57.891Z,0.70
2023-02-27T18:42:25.718Z,0.70
2023-02-27T18:44:53.557Z,0.70
2023-02-27T18:47:21.311Z,0.70
2023-02-27T18:49:49.220Z,0.70
2023-02-27T18:52:18.891Z,0.70
2023-02-27T18:54:46.843Z,0.70
2023-02-27T18:57:15.600Z,0.70
2023-02-27T18:59:46.536Z,0.68
2023-02-27T19:02:15.788Z,0.70
2023-02-27T19:08:02.229Z,0.60
2023-02-27T19:10:32.614Z,0.60
2023-02-27T19:13:00.905Z,0.60
2023-02-27T19:15:28.781Z,0.58
2023-02-27T19:17:56.743Z,0.52
2023-02-27T19:20:24.633Z,0.50
2023-02-27T19:22:53.615Z,0.50
2023-02-27T19:25:22.174Z,0.50
2023-02-27T19:27:57.395Z,0.50
2023-02-27T19:30:28.113Z,0.46
2023-02-27T19:32:55.949Z,0.40
2023-02-27T19:35:23.789Z,0.40
2023-02-27T19:37:57.231Z,0.40
2023-02-27T19:40:25.380Z,0.40
2023-02-27T19:42:53.231Z,0.40
2023-02-27T19:45:21.085Z,0.38
2023-02-27T19:47:48.920Z,0.30
2023-02-27T19:50:17.735Z,0.30
2023-02-27T19:52:45.606Z,0.30
2023-02-27T19:55:13.967Z,0.30
2023-02-27T19:57:41.849Z,0.30
2023-02-27T20:00:13.191Z,0.20
2023-02-27T20:02:41.220Z,0.20
2023-02-27T20:05:12.210Z,0.20
2023-02-27T20:07:40.486Z,0.10
2023-02-27T20:10:10.129Z,0.10
2023-02-27T20:12:37.952Z,0.00
2023-02-27T20:15:08.833Z,-0.10
2023-02-27T20:17:36.644Z,-0.10
2023-02-27T20:20:05.951Z,-0.14
2023-02-27T20:22:33.716Z,-0.20
2023-02-27T20:25:01.518Z,-0.20
2023-02-27T20:27:29.531Z,-0.28
2023-02-27T20:29:57.594Z,-0.30
2023-02-27T20:32:25.523Z,-0.30
2023-02-27T20:34:55.777Z,-0.38
2023-02-27T20:37:23.771Z,-0.38
2023-02-27T20:39:51.881Z,-0.40
2023-02-27T20:42:19.614Z,-0.40
2023-02-27T20:44:48.371Z,-0.40
2023-02-27T20:47:16.479Z,-0.40
2023-02-27T20:49:44.647Z,-0.40
2023-02-27T20:52:12.468Z,-0.40
2023-02-27T20:54:40.524Z,-0.40
2023-02-27T20:57:08.461Z,-0.40
2023-02-27T20:59:36.342Z,-0.40
2023-02-27T21:02:06.867Z,-0.36
2023-02-27T21:04:45.664Z,-0.32
2023-02-27T21:07:16.923Z,-0.34
2023-02-27T21:09:45.483Z,-0.30
2023-02-27T21:12:13.726Z,-0.30
2023-02-27T21:14:44.630Z,-0.30
2023-02-27T21:17:13.934Z,-0.30
2023-02-27T21:19:41.759Z,-0.30
2023-02-27T21:22:11.437Z,-0.30
2023-02-27T21:24:39.353Z,-0.26
2023-02-27T21:27:07.589Z,-0.28
2023-02-27T21:29:36.525Z,-0.30
2023-02-27T21:32:04.926Z,-0.30
2023-02-27T21:34:33.004Z,-0.30
2023-02-27T21:37:01.755Z,-0.30
2023-02-27T21:39:29.664Z,-0.30
2023-02-27T21:41:59.746Z,-0.30
2023-02-27T21:44:29.757Z,-0.32
2023-02-27T21:46:57.888Z,-0.36
2023-02-27T21:49:28.032Z,-0.40
2023-02-27T21:51:56.511Z,-0.40
2023-02-27T21:54:24.422Z,-0.40
2023-02-27T21:56:52.367Z,-0.40
2023-02-27T21:59:20.926Z,-0.44
2023-02-27T22:01:49.200Z,-0.50
2023-02-27T22:04:19.060Z,-0.50
2023-02-27T22:06:48.731Z,-0.54
2023-02-27T22:09:16.990Z,-0.60
2023-02-27T22:11:45.100Z,-0.60
2023-02-27T22:14:13.333Z,-0.70
2023-02-27T22:16:41.473Z,-0.76
2023-02-27T22:19:13.164Z,-0.80
2023-02-27T22:21:41.028Z,-0.80
2023-02-27T22:24:09.279Z,-0.90
2023-02-27T22:26:37.464Z,-0.90
2023-02-27T22:29:06.399Z,-1.00
2023-02-27T22:31:38.222Z,-1.00
2023-02-27T22:34:10.233Z,-1.00
2023-02-27T22:36:38.690Z,-1.00
2023-02-27T22:39:06.552Z,-1.06
2023-02-27T22:41:37.415Z,-1.10
2023-02-27T22:44:05.351Z,-1.10
2023-02-27T22:46:36.260Z,-1.16
2023-02-27T22:49:08.702Z,-1.20
2023-02-27T22:51:36.759Z,-1.20
2023-02-27T22:54:05.526Z,-1.26
2023-02-27T22:56:34.027Z,-1.30
2023-02-27T22:59:02.290Z,-1.30
2023-02-27T23:01:31.978Z,-1.30
2023-02-27T23:04:03.019Z,-1.30
2023-02-27T23:06:34.241Z,-1.34
2023-02-27T23:09:02.637Z,-1.40
2023-02-27T23:11:31.439Z,-1.40
2023-02-27T23:13:59.618Z,-1.40
2023-02-27T23:16:27.883Z,-1.40
2023-02-27T23:18:57.713Z,-1.48
2023-02-27T23:21:32.163Z,-1.50
2023-02-27T23:24:08.735Z,-1.50
2023-02-27T23:26:38.300Z,-1.50
2023-02-27T23:29:06.323Z,-1.50
2023-02-27T23:31:35.792Z,-1.50
2023-02-27T23:34:07.841Z,-1.50
2023-02-27T23:36:36.536Z,-1.50
2023-02-27T23:39:05.200Z,-1.50
2023-02-27T23:41:34.121Z,-1.50
2023-02-27T23:44:20.799Z,-1.50
2023-02-27T23:46:48.668Z,-1.50
2023-02-27T23:49:16.771Z,-1.50
2023-02-27T23:51:44.910Z,-1.50
2023-02-27T23:54:12.836Z,-1.40
2023-02-27T23:56:40.878Z,-1.40
2023-02-27T23:59:08.720Z,-1.40
